Time;durP1;ratioP1;P1;durP2;ratioP2;P2;SDS_P1;SDS_P2;PMS_P1;PMS_P2;Temp;Humidity;BMP_temperature;BMP_pressure;BME280_temperature;BME280_humidity;BME280_pressure;Samples;Min_cycle;Max_cycle;Signal;HPM_P1;HPM_P2
2021/11/22 00:00:57;;;;;;;2.45;1.13;;;;;;;;;;2090329;28;20104;-85
2021/11/22 00:02:16;;;;;;;1.45;0.90;;;;;;;;;;2093606;28;20025;-83
2021/11/22 00:03:36;;;;;;;1.80;0.85;;;;;;;;;;2089930;28;20032;-85
2021/11/22 00:04:55;;;;;;;1.77;0.90;;;;;;;;;;2086756;28;20024;-85
2021/11/22 00:06:14;;;;;;;1.83;0.82;;;;;;;;;;2090365;28;20060;-86
2021/11/22 00:07:33;;;;;;;4.90;1.20;;;;;;;;;;2089029;28;20408;-85
2021/11/22 00:08:52;;;;;;;2.67;1.45;;;;;;;;;;2088680;28;20033;-84
2021/11/22 00:10:11;;;;;;;0.80;0.80;;;;;;;;;;2086362;28;20448;-85
2021/11/22 00:11:30;;;;;;;1.30;0.90;;;;;;;;;;2087997;28;20025;-85
2021/11/22 00:12:50;;;;;;;0.90;0.70;;;;;;;;;;2087827;28;20394;-86
2021/11/22 00:14:08;;;;;;;1.33;0.93;;;;;;;;;;2088274;28;20029;-85
2021/11/22 00:15:27;;;;;;;1.27;0.80;;;;;;;;;;2086378;28;20509;-84
2021/11/22 00:16:46;;;;;;;1.88;1.27;;;;;;;;;;2088748;28;20069;-84
2021/11/22 00:18:05;;;;;;;1.95;0.90;;;;;;;;;;2085892;28;20029;-85
2021/11/22 00:19:24;;;;;;;2.10;0.75;;;;;;;;;;2085272;28;20580;-85
2021/11/22 00:20:43;;;;;;;0.90;0.75;;;;;;;;;;2084146;28;20381;-84
2021/11/22 00:22:02;;;;;;;1.65;0.70;;;;;;;;;;2089868;28;20104;-84
2021/11/22 00:23:22;;;;;;;2.20;0.93;;;;;;;;;;2085786;28;20025;-85
2021/11/22 00:24:41;;;;;;;3.08;0.80;;;;;;;;;;2089981;28;20060;-84
2021/11/22 00:26:00;;;;;;;2.58;0.80;;;;;;;;;;2089493;28;20033;-84
2021/11/22 00:27:19;;;;;;;6.38;1.02;;;;;;;;;;2090140;28;20033;-85
2021/11/22 00:28:39;;;;;;;2.22;0.82;;;;;;;;;;2089927;28;20041;-85
2021/11/22 00:29:58;;;;;;;2.30;0.90;;;;;;;;;;2086341;28;20065;-83
2021/11/22 00:31:17;;;;;;;3.05;0.70;;;;;;;;;;2090210;28;20017;-83
2021/11/22 00:32:36;;;;;;;1.20;1.00;;;;;;;;;;2087090;28;20040;-82
2021/11/22 00:33:56;;;;;;;2.20;0.90;;;;;;;;;;2084880;28;20041;-83
2021/11/22 00:35:15;;;;;;;2.10;0.73;;;;;;;;;;2085778;28;20012;-84
2021/11/22 00:36:34;;;;;;;2.45;0.73;;;;;;;;;;2087659;28;20025;-83
2021/11/22 00:37:54;;;;;;;2.88;0.85;;;;;;;;;;2078131;28;20037;-83
2021/11/22 00:39:13;;;;;;;1.95;0.90;;;;;;;;;;2080620;28;20025;-83
2021/11/22 00:40:36;;;;;;;1.17;0.82;;;;;;;;;;2082624;28;20029;-83
2021/11/22 00:41:55;;;;;;;;;;;;;;;;;;2088666;28;20037;-84
2021/11/22 00:43:14;;;;;;;2.38;0.90;;;;;;;;;;2091313;28;20364;-83
2021/11/22 00:44:33;;;;;;;1.35;0.82;;;;;;;;;;2089565;28;20029;-84
2021/11/22 00:45:52;;;;;;;2.97;0.80;;;;;;;;;;2089208;28;20046;-83
2021/11/22 00:47:12;;;;;;;1.30;0.90;;;;;;;;;;2086787;28;20032;-84
2021/11/22 00:48:31;;;;;;;1.80;0.90;;;;;;;;;;2085570;28;20502;-84
2021/11/22 00:49:50;;;;;;;1.08;0.95;;;;;;;;;;2088053;28;20045;-82
2021/11/22 00:51:09;;;;;;;3.40;1.10;;;;;;;;;;2089487;28;20419;-84
2021/11/22 00:52:28;;;;;;;3.95;1.27;;;;;;;;;;2090222;28;20029;-84
2021/11/22 00:53:47;;;;;;;1.40;1.00;;;;;;;;;;2088077;28;20025;-82
2021/11/22 00:55:07;;;;;;;2.15;1.10;;;;;;;;;;2088581;28;20029;-84
2021/11/22 00:56:28;;;;;;;3.33;1.05;;;;;;;;;;2087641;28;20033;-84
2021/11/22 00:57:47;;;;;;;4.60;1.30;;;;;;;;;;2082647;28;20100;-83
2021/11/22 00:59:05;;;;;;;2.38;0.95;;;;;;;;;;2090141;28;20024;-83
2021/11/22 01:00:24;;;;;;;1.45;0.75;;;;;;;;;;2089864;28;20034;-82
2021/11/22 01:01:46;;;;;;;1.10;1.00;;;;;;;;;;2086876;28;20116;-83
2021/11/22 01:03:05;;;;;;;1.65;0.77;;;;;;;;;;2087714;28;20131;-81
2021/11/22 01:04:24;;;;;;;1.95;1.02;;;;;;;;;;2083425;28;20021;-82
2021/11/22 01:05:43;;;;;;;2.15;0.73;;;;;;;;;;2089104;28;20033;-82
2021/11/22 01:07:02;;;;;;;4.88;1.05;;;;;;;;;;2088929;28;20057;-82
2021/11/22 01:08:21;;;;;;;2.08;0.60;;;;;;;;;;2087428;28;20036;-83
2021/11/22 01:09:40;;;;;;;4.45;0.77;;;;;;;;;;2084961;28;20036;-83
2021/11/22 01:10:59;;;;;;;2.65;0.70;;;;;;;;;;2085426;28;20152;-82
2021/11/22 01:12:18;;;;;;;2.38;1.05;;;;;;;;;;2089076;28;20044;-83
2021/11/22 01:13:38;;;;;;;1.48;0.55;;;;;;;;;;2090623;28;20029;-83
2021/11/22 01:14:58;;;;;;;1.92;0.70;;;;;;;;;;2083562;28;20402;-83
2021/11/22 01:16:17;;;;;;;2.20;0.68;;;;;;;;;;2084180;28;20041;-82
2021/11/22 01:17:36;;;;;;;0.95;0.55;;;;;;;;;;2085952;28;20150;-82
2021/11/22 01:18:55;;;;;;;5.40;0.98;;;;;;;;;;2085824;28;20029;-83
2021/11/22 01:20:16;;;;;;;2.15;0.63;;;;;;;;;;2086382;28;20029;-82
2021/11/22 01:21:35;;;;;;;0.52;0.52;;;;;;;;;;2083072;28;20643;-83
2021/11/22 01:22:59;;;;;;;0.85;0.57;;;;;;;;;;2083799;28;20769;-83
2021/11/22 01:24:18;;;;;;;3.72;0.90;;;;;;;;;;2085552;28;20028;-83
2021/11/22 01:25:38;;;;;;;4.90;1.05;;;;;;;;;;2088328;28;20049;-82
2021/11/22 01:26:57;;;;;;;1.85;0.57;;;;;;;;;;2083798;28;20025;-82
2021/11/22 01:28:15;;;;;;;2.90;0.80;;;;;;;;;;2087762;28;20029;-82
2021/11/22 01:29:34;;;;;;;1.05;0.57;;;;;;;;;;2084517;28;20033;-82
2021/11/22 01:30:53;;;;;;;2.67;0.70;;;;;;;;;;2086327;28;20069;-84
2021/11/22 01:32:12;;;;;;;0.57;0.50;;;;;;;;;;2087999;28;20033;-84
2021/11/22 01:33:31;;;;;;;5.38;1.02;;;;;;;;;;2088543;28;20481;-83
2021/11/22 01:34:49;;;;;;;2.58;0.73;;;;;;;;;;2085675;28;20025;-83
2021/11/22 01:36:08;;;;;;;0.50;0.50;;;;;;;;;;2089946;28;20021;-83
2021/11/22 01:37:27;;;;;;;0.70;0.50;;;;;;;;;;2085388;28;20021;-80
2021/11/22 01:38:46;;;;;;;3.15;0.55;;;;;;;;;;2085866;28;20032;-84
2021/11/22 01:40:06;;;;;;;0.73;0.57;;;;;;;;;;2084243;28;20029;-83
2021/11/22 01:41:25;;;;;;;2.38;0.65;;;;;;;;;;2086772;28;20029;-80
2021/11/22 01:42:45;;;;;;;1.95;0.47;;;;;;;;;;2094866;28;20025;-84
2021/11/22 01:44:04;;;;;;;0.73;0.60;;;;;;;;;;2088709;28;20037;-82
2021/11/22 01:45:23;;;;;;;1.70;0.70;;;;;;;;;;2086437;28;20585;-84
2021/11/22 01:46:44;;;;;;;1.90;0.73;;;;;;;;;;2087270;28;20112;-81
2021/11/22 01:48:03;;;;;;;1.30;0.70;;;;;;;;;;2086477;28;20505;-84
2021/11/22 01:49:23;;;;;;;0.73;0.68;;;;;;;;;;2082744;28;20059;-83
2021/11/22 01:50:42;;;;;;;2.67;0.70;;;;;;;;;;2085688;28;20041;-83
2021/11/22 01:52:01;;;;;;;1.85;0.50;;;;;;;;;;2085877;28;20029;-84
2021/11/22 01:53:23;;;;;;;0.82;0.80;;;;;;;;;;2087400;28;20021;-83
2021/11/22 01:54:42;;;;;;;1.35;0.70;;;;;;;;;;2084451;28;20029;-82
2021/11/22 01:56:00;;;;;;;2.50;0.80;;;;;;;;;;2082567;28;20448;-83
2021/11/22 01:57:20;;;;;;;0.57;0.50;;;;;;;;;;2089532;28;20025;-83
2021/11/22 01:58:39;;;;;;;0.50;0.50;;;;;;;;;;2089389;28;20060;-84
2021/11/22 01:59:58;;;;;;;0.60;0.57;;;;;;;;;;2083851;28;20033;-84
2021/11/22 02:01:17;;;;;;;0.73;0.57;;;;;;;;;;2088841;28;20033;-83
2021/11/22 02:02:36;;;;;;;1.13;0.68;;;;;;;;;;2089292;28;20481;-83
2021/11/22 02:03:55;;;;;;;0.70;0.70;;;;;;;;;;2090924;28;20025;-81
2021/11/22 02:05:14;;;;;;;3.35;0.90;;;;;;;;;;2087644;28;20032;-84
2021/11/22 02:06:33;;;;;;;1.17;0.80;;;;;;;;;;2096911;28;20032;-83
2021/11/22 02:07:51;;;;;;;1.50;0.40;;;;;;;;;;2089170;28;20043;-83
2021/11/22 02:09:10;;;;;;;0.85;0.75;;;;;;;;;;2086773;28;20029;-83
2021/11/22 02:10:30;;;;;;;1.75;0.52;;;;;;;;;;2084231;28;20025;-82
2021/11/22 02:11:49;;;;;;;0.73;0.50;;;;;;;;;;2081967;28;20025;-83
2021/11/22 02:13:08;;;;;;;1.00;0.60;;;;;;;;;;2083582;28;20024;-83
2021/11/22 02:14:27;;;;;;;1.52;0.50;;;;;;;;;;2085103;28;20056;-83
2021/11/22 02:15:46;;;;;;;1.88;0.50;;;;;;;;;;2086236;28;20088;-84
2021/11/22 02:17:07;;;;;;;1.02;0.65;;;;;;;;;;2086970;28;20025;-83
2021/11/22 02:18:26;;;;;;;1.80;0.50;;;;;;;;;;2088958;28;20021;-84
2021/11/22 02:20:02;;;;;;;1.05;0.70;;;;;;;;;;2088978;28;20108;-83
2021/11/22 02:21:21;;;;;;;1.65;0.70;;;;;;;;;;2090125;28;20056;-83
2021/11/22 02:22:44;;;;;;;0.88;0.60;;;;;;;;;;2086722;28;20547;-83
2021/11/22 02:24:04;;;;;;;3.20;0.60;;;;;;;;;;2089231;28;20025;-83
2021/11/22 02:25:24;;;;;;;1.27;0.45;;;;;;;;;;2086912;28;20020;-83
2021/11/22 02:26:43;;;;;;;1.05;0.65;;;;;;;;;;2088700;28;20032;-84
2021/11/22 02:28:02;;;;;;;0.73;0.43;;;;;;;;;;2083886;28;20521;-81
2021/11/22 02:29:21;;;;;;;0.93;0.40;;;;;;;;;;2084798;28;20476;-83
2021/11/22 02:30:43;;;;;;;0.40;0.40;;;;;;;;;;2085707;28;20025;-83
2021/11/22 02:32:02;;;;;;;2.05;0.45;;;;;;;;;;2089885;28;20032;-84
2021/11/22 02:33:27;;;;;;;0.65;0.60;;;;;;;;;;2085780;28;20061;-84
2021/11/22 02:34:46;;;;;;;1.90;0.55;;;;;;;;;;2084913;28;20030;-82
2021/11/22 02:36:05;;;;;;;1.90;0.68;;;;;;;;;;2086286;28;20041;-84
2021/11/22 02:37:24;;;;;;;2.05;0.70;;;;;;;;;;2082949;28;20029;-83
2021/11/22 02:38:44;;;;;;;1.33;0.50;;;;;;;;;;2082700;28;20401;-84
2021/11/22 02:40:04;;;;;;;1.75;0.80;;;;;;;;;;2082181;28;20037;-83
2021/11/22 02:41:23;;;;;;;0.40;0.38;;;;;;;;;;2085274;28;20064;-83
2021/11/22 02:42:44;;;;;;;0.50;0.32;;;;;;;;;;2087289;28;20068;-81
2021/11/22 02:44:03;;;;;;;0.77;0.43;;;;;;;;;;2082782;28;20026;-84
2021/11/22 02:45:22;;;;;;;3.10;0.68;;;;;;;;;;2086266;28;20076;-83
2021/11/22 02:46:41;;;;;;;0.50;0.50;;;;;;;;;;2087112;28;20025;-83
2021/11/22 02:48:00;;;;;;;1.23;0.50;;;;;;;;;;2088861;28;20405;-84
2021/11/22 02:49:19;;;;;;;3.50;0.70;;;;;;;;;;2089004;28;20376;-82
2021/11/22 02:50:38;;;;;;;1.98;0.30;;;;;;;;;;2086717;28;20029;-84
2021/11/22 02:51:57;;;;;;;0.55;0.50;;;;;;;;;;2084344;28;20029;-84
2021/11/22 02:53:16;;;;;;;1.05;0.50;;;;;;;;;;2077757;28;20034;-83
2021/11/22 02:54:35;;;;;;;2.47;0.50;;;;;;;;;;2080839;28;20021;-84
2021/11/22 02:55:57;;;;;;;1.10;0.40;;;;;;;;;;2082043;28;20554;-85
2021/11/22 02:57:17;;;;;;;0.50;0.40;;;;;;;;;;2085470;28;20021;-84
2021/11/22 02:58:37;;;;;;;2.20;0.70;;;;;;;;;;2083275;28;20029;-84
2021/11/22 02:59:56;;;;;;;1.00;0.70;;;;;;;;;;2088380;28;20080;-85
2021/11/22 03:01:15;;;;;;;2.33;1.00;;;;;;;;;;2089377;28;20460;-84
2021/11/22 03:02:34;;;;;;;0.57;0.50;;;;;;;;;;2083137;28;20025;-84
2021/11/22 03:03:54;;;;;;;1.02;0.60;;;;;;;;;;2086449;28;20582;-83
2021/11/22 03:05:13;;;;;;;1.05;0.40;;;;;;;;;;2086625;28;20021;-83
2021/11/22 03:06:32;;;;;;;0.73;0.50;;;;;;;;;;2089281;28;20119;-83
2021/11/22 03:07:52;;;;;;;0.90;0.40;;;;;;;;;;2089590;28;20025;-83
2021/11/22 03:09:12;;;;;;;2.60;0.60;;;;;;;;;;2087315;28;20489;-84
2021/11/22 03:10:31;;;;;;;0.60;0.40;;;;;;;;;;2087402;28;20112;-83
2021/11/22 03:11:50;;;;;;;0.75;0.55;;;;;;;;;;2087736;28;20050;-83
2021/11/22 03:13:10;;;;;;;0.47;0.47;;;;;;;;;;2089076;28;20072;-83
2021/11/22 03:14:30;;;;;;;0.70;0.50;;;;;;;;;;2089373;28;20432;-84
2021/11/22 03:15:49;;;;;;;2.28;0.70;;;;;;;;;;2088664;28;20049;-84
2021/11/22 03:17:08;;;;;;;0.93;0.60;;;;;;;;;;2084989;28;20017;-84
2021/11/22 03:18:27;;;;;;;2.97;0.80;;;;;;;;;;2091536;28;20052;-84
2021/11/22 03:19:46;;;;;;;0.95;0.60;;;;;;;;;;2091004;28;20025;-84
2021/11/22 03:21:05;;;;;;;2.72;0.88;;;;;;;;;;2086068;28;20029;-84
2021/11/22 03:22:25;;;;;;;4.75;0.70;;;;;;;;;;2086820;28;20064;-84
2021/11/22 03:23:43;;;;;;;1.40;0.50;;;;;;;;;;2085799;28;20521;-84
2021/11/22 03:25:03;;;;;;;0.60;0.50;;;;;;;;;;2086761;28;20518;-84
2021/11/22 03:26:22;;;;;;;2.97;0.80;;;;;;;;;;2084991;28;20041;-83
2021/11/22 03:27:42;;;;;;;1.13;0.50;;;;;;;;;;2091517;28;20033;-80
2021/11/22 03:29:01;;;;;;;0.82;0.70;;;;;;;;;;2090468;28;20041;-84
2021/11/22 03:30:20;;;;;;;3.15;0.80;;;;;;;;;;2085074;28;20037;-84
2021/11/22 03:31:39;;;;;;;1.02;0.40;;;;;;;;;;2092089;28;20136;-84
2021/11/22 03:32:58;;;;;;;2.55;0.77;;;;;;;;;;2086065;28;20049;-84
2021/11/22 03:34:17;;;;;;;3.83;1.17;;;;;;;;;;2087684;28;20501;-84
2021/11/22 03:35:36;;;;;;;1.75;0.60;;;;;;;;;;2083943;28;20473;-84
2021/11/22 03:37:01;;;;;;;2.72;0.40;;;;;;;;;;2085564;28;20029;-83
2021/11/22 03:38:21;;;;;;;1.67;0.43;;;;;;;;;;2085004;28;20029;-84
2021/11/22 03:39:45;;;;;;;1.08;0.40;;;;;;;;;;2090333;28;20021;-84
2021/11/22 03:41:10;;;;;;;1.73;0.50;;;;;;;;;;2092775;28;20024;-86
2021/11/22 03:42:37;;;;;;;1.13;0.40;;;;;;;;;;2088554;28;20030;-84
2021/11/22 03:43:57;;;;;;;0.80;0.52;;;;;;;;;;2089093;28;20029;-85
2021/11/22 03:45:16;;;;;;;4.32;0.50;;;;;;;;;;2083399;28;20033;-82
2021/11/22 03:46:35;;;;;;;0.90;0.60;;;;;;;;;;2089065;28;20111;-85
2021/11/22 03:47:54;;;;;;;2.63;0.50;;;;;;;;;;2087703;28;20182;-85
2021/11/22 03:49:13;;;;;;;0.68;0.60;;;;;;;;;;2086727;28;20108;-84
2021/11/22 03:50:33;;;;;;;0.60;0.60;;;;;;;;;;2088917;28;20020;-85
2021/11/22 03:51:52;;;;;;;1.05;0.82;;;;;;;;;;2089709;28;20397;-82
2021/11/22 03:53:11;;;;;;;0.57;0.38;;;;;;;;;;2089870;28;20025;-84
2021/11/22 03:54:30;;;;;;;1.48;0.60;;;;;;;;;;2089507;28;20029;-83
2021/11/22 03:55:49;;;;;;;1.50;0.73;;;;;;;;;;2087318;28;20486;-84
2021/11/22 03:57:08;;;;;;;1.60;0.52;;;;;;;;;;2085114;28;20097;-84
2021/11/22 03:58:27;;;;;;;1.35;0.55;;;;;;;;;;2091145;28;20033;-85
2021/11/22 03:59:46;;;;;;;7.18;0.88;;;;;;;;;;2088694;28;20104;-84
2021/11/22 04:01:05;;;;;;;1.80;0.50;;;;;;;;;;2076209;28;20033;-83
2021/11/22 04:02:25;;;;;;;3.03;1.02;;;;;;;;;;2081626;28;20335;-83
2021/11/22 04:03:44;;;;;;;1.90;0.65;;;;;;;;;;2085920;28;20587;-85
2021/11/22 04:05:03;;;;;;;1.67;0.65;;;;;;;;;;2090195;28;20033;-85
2021/11/22 04:06:22;;;;;;;1.40;0.57;;;;;;;;;;2084488;28;20040;-83
2021/11/22 04:07:41;;;;;;;0.50;0.47;;;;;;;;;;2085076;28;20068;-84
2021/11/22 04:08:59;;;;;;;0.73;0.47;;;;;;;;;;2084542;28;20025;-84
2021/11/22 04:10:18;;;;;;;3.13;0.60;;;;;;;;;;2082882;28;20025;-81
2021/11/22 04:11:37;;;;;;;0.88;0.52;;;;;;;;;;2081251;28;20033;-85
2021/11/22 04:12:56;;;;;;;3.10;0.60;;;;;;;;;;2085886;28;20091;-81
2021/11/22 04:14:15;;;;;;;4.03;0.60;;;;;;;;;;2083611;28;20021;-84
2021/11/22 04:15:35;;;;;;;2.78;0.60;;;;;;;;;;2089367;28;20132;-82
2021/11/22 04:16:54;;;;;;;2.05;0.50;;;;;;;;;;2089042;28;20025;-84
2021/11/22 04:18:14;;;;;;;1.08;0.50;;;;;;;;;;2089841;28;20060;-84
2021/11/22 04:19:33;;;;;;;3.03;0.50;;;;;;;;;;2089171;28;20029;-83
2021/11/22 04:20:52;;;;;;;1.30;0.50;;;;;;;;;;2087076;28;20099;-85
2021/11/22 04:22:11;;;;;;;1.00;0.80;;;;;;;;;;2082272;28;20482;-84
2021/11/22 04:23:31;;;;;;;1.95;0.57;;;;;;;;;;2087133;28;20032;-85
2021/11/22 04:24:50;;;;;;;2.08;0.57;;;;;;;;;;2075646;28;20037;-83
2021/11/22 04:26:10;;;;;;;2.97;0.70;;;;;;;;;;2081859;28;20036;-84
2021/11/22 04:27:29;;;;;;;2.00;0.60;;;;;;;;;;2085980;28;20029;-85
2021/11/22 04:28:48;;;;;;;1.90;0.85;;;;;;;;;;2084157;28;20544;-85
2021/11/22 04:30:08;;;;;;;2.95;0.50;;;;;;;;;;2087612;28;20164;-85
2021/11/22 04:31:27;;;;;;;1.33;0.63;;;;;;;;;;2088707;28;20028;-85
2021/11/22 04:32:46;;;;;;;1.27;0.75;;;;;;;;;;2083747;28;20120;-80
2021/11/22 04:34:05;;;;;;;3.78;0.80;;;;;;;;;;2087094;28;20025;-84
2021/11/22 04:35:24;;;;;;;2.92;0.70;;;;;;;;;;2082268;28;20037;-85
2021/11/22 04:36:43;;;;;;;2.88;0.77;;;;;;;;;;2084899;28;21141;-85
2021/11/22 04:38:03;;;;;;;1.50;0.80;;;;;;;;;;2085213;28;20025;-80
2021/11/22 04:39:22;;;;;;;0.68;0.60;;;;;;;;;;2087772;28;20033;-84
2021/11/22 04:40:41;;;;;;;2.85;0.80;;;;;;;;;;2088025;28;20056;-83
2021/11/22 04:42:00;;;;;;;0.70;0.70;;;;;;;;;;2085045;28;20025;-84
2021/11/22 04:43:19;;;;;;;2.40;0.70;;;;;;;;;;2086725;28;20049;-84
2021/11/22 04:44:38;;;;;;;2.83;0.93;;;;;;;;;;2088996;28;20493;-81
2021/11/22 04:45:56;;;;;;;0.70;0.60;;;;;;;;;;2085227;28;20033;-85
2021/11/22 04:47:19;;;;;;;1.65;0.80;;;;;;;;;;2085082;28;20029;-84
2021/11/22 04:48:38;;;;;;;2.20;1.15;;;;;;;;;;2083891;28;20482;-80
2021/11/22 04:49:57;;;;;;;3.50;0.93;;;;;;;;;;2085773;28;20033;-82
2021/11/22 04:51:16;;;;;;;1.30;0.68;;;;;;;;;;2090367;28;20025;-84
2021/11/22 04:52:35;;;;;;;4.00;0.60;;;;;;;;;;2085105;28;20037;-85
2021/11/22 04:53:54;;;;;;;2.08;0.80;;;;;;;;;;2093797;28;20032;-81
2021/11/22 04:55:14;;;;;;;2.05;0.90;;;;;;;;;;2093280;28;20025;-84
2021/11/22 04:56:33;;;;;;;1.40;0.90;;;;;;;;;;2088686;28;20033;-85
2021/11/22 04:57:53;;;;;;;2.08;0.80;;;;;;;;;;2086553;28;20029;-84
2021/11/22 04:59:12;;;;;;;2.10;0.88;;;;;;;;;;2089572;28;20025;-84
2021/11/22 05:00:31;;;;;;;1.23;0.80;;;;;;;;;;2084954;28;20108;-83
2021/11/22 05:01:50;;;;;;;2.53;0.98;;;;;;;;;;2084199;28;20504;-83
2021/11/22 05:03:09;;;;;;;4.32;1.25;;;;;;;;;;2085191;28;20025;-83
2021/11/22 05:04:28;;;;;;;3.00;0.70;;;;;;;;;;2088086;28;20085;-84
2021/11/22 05:05:46;;;;;;;1.63;0.50;;;;;;;;;;2090786;28;20056;-84
2021/11/22 05:07:06;;;;;;;1.38;0.60;;;;;;;;;;2089418;28;20017;-83
2021/11/22 05:08:25;;;;;;;2.10;0.82;;;;;;;;;;2087587;28;20017;-81
2021/11/22 05:09:47;;;;;;;1.27;0.80;;;;;;;;;;2085674;28;20155;-81
2021/11/22 05:11:06;;;;;;;0.70;0.65;;;;;;;;;;2081472;28;20084;-81
2021/11/22 05:12:25;;;;;;;1.85;0.88;;;;;;;;;;2093545;28;20033;-81
2021/11/22 05:13:44;;;;;;;1.73;0.70;;;;;;;;;;2086614;28;20037;-80
2021/11/22 05:15:03;;;;;;;0.70;0.70;;;;;;;;;;2087631;28;20235;-81
2021/11/22 05:16:22;;;;;;;2.03;0.77;;;;;;;;;;2088573;28;20036;-80
2021/11/22 05:17:41;;;;;;;1.23;0.77;;;;;;;;;;2088426;28;20036;-81
2021/11/22 05:19:00;;;;;;;1.42;0.65;;;;;;;;;;2086798;28;20033;-80
2021/11/22 05:20:19;;;;;;;2.03;0.85;;;;;;;;;;2079867;28;20022;-84
2021/11/22 05:21:38;;;;;;;1.45;0.90;;;;;;;;;;2085701;28;20405;-80
2021/11/22 05:22:58;;;;;;;1.70;0.80;;;;;;;;;;2092882;28;20029;-82
2021/11/22 05:24:17;;;;;;;2.15;0.80;;;;;;;;;;2088256;28;20041;-80
2021/11/22 05:25:36;;;;;;;2.88;1.05;;;;;;;;;;2089381;28;20061;-80
2021/11/22 05:26:56;;;;;;;1.38;0.73;;;;;;;;;;2089641;28;20025;-80
2021/11/22 05:28:15;;;;;;;1.63;0.80;;;;;;;;;;2088786;28;20393;-80
2021/11/22 05:29:34;;;;;;;2.75;0.73;;;;;;;;;;2088355;28;20492;-80
2021/11/22 05:30:53;;;;;;;1.23;1.13;;;;;;;;;;2085601;28;20029;-80
2021/11/22 05:32:16;;;;;;;3.70;1.13;;;;;;;;;;2084613;28;20489;-80
2021/11/22 05:33:34;;;;;;;0.73;0.70;;;;;;;;;;2087329;28;20033;-80
2021/11/22 05:34:54;;;;;;;2.10;0.90;;;;;;;;;;2086885;28;20497;-80
2021/11/22 05:36:13;;;;;;;0.93;0.70;;;;;;;;;;2084197;28;20123;-80
2021/11/22 05:37:35;;;;;;;0.80;0.52;;;;;;;;;;2090911;28;20025;-79
2021/11/22 05:38:54;;;;;;;2.10;0.93;;;;;;;;;;2088612;28;20270;-79
2021/11/22 05:40:13;;;;;;;2.85;0.65;;;;;;;;;;2088144;28;20032;-79
2021/11/22 05:41:32;;;;;;;1.60;0.60;;;;;;;;;;2085161;28;20033;-79
2021/11/22 05:42:51;;;;;;;0.50;0.50;;;;;;;;;;2088727;28;20017;-80
2021/11/22 05:44:10;;;;;;;1.92;0.60;;;;;;;;;;2087872;28;20058;-81
2021/11/22 05:45:29;;;;;;;1.48;0.80;;;;;;;;;;2085704;28;20017;-83
2021/11/22 05:46:50;;;;;;;1.20;0.90;;;;;;;;;;2085330;28;20033;-79
2021/11/22 05:48:09;;;;;;;1.70;0.73;;;;;;;;;;2088137;28;20037;-80
2021/11/22 05:49:31;;;;;;;1.50;0.60;;;;;;;;;;2083721;28;20030;-80
2021/11/22 05:50:52;;;;;;;3.83;0.77;;;;;;;;;;2085638;28;20033;-79
2021/11/22 05:52:11;;;;;;;3.60;0.88;;;;;;;;;;2084766;28;20033;-79
2021/11/22 05:53:33;;;;;;;2.58;0.82;;;;;;;;;;2087197;28;20104;-79
2021/11/22 05:54:55;;;;;;;2.25;0.70;;;;;;;;;;2089786;28;20111;-79
2021/11/22 05:56:16;;;;;;;3.42;0.88;;;;;;;;;;2086794;28;20028;-79
2021/11/22 05:57:34;;;;;;;1.00;0.90;;;;;;;;;;2082558;28;20025;-82
2021/11/22 05:58:53;;;;;;;1.58;0.85;;;;;;;;;;2086040;28;20440;-79
2021/11/22 06:00:12;;;;;;;3.25;0.70;;;;;;;;;;2088639;28;20025;-79
2021/11/22 06:01:31;;;;;;;3.80;1.38;;;;;;;;;;2088836;28;20029;-78
2021/11/22 06:02:51;;;;;;;1.60;0.80;;;;;;;;;;2088151;28;20028;-78
2021/11/22 06:04:10;;;;;;;0.63;0.63;;;;;;;;;;2086547;28;20040;-79
2021/11/22 06:05:29;;;;;;;1.48;0.88;;;;;;;;;;2088958;28;20033;-78
2021/11/22 06:06:48;;;;;;;1.25;0.82;;;;;;;;;;2088431;28;20037;-77
2021/11/22 06:08:07;;;;;;;2.20;0.80;;;;;;;;;;2084549;28;20028;-78
2021/11/22 06:09:26;;;;;;;4.28;0.77;;;;;;;;;;2083077;28;20038;-79
2021/11/22 06:10:46;;;;;;;1.33;0.70;;;;;;;;;;2087907;28;20024;-78
2021/11/22 06:12:05;;;;;;;2.00;0.75;;;;;;;;;;2084073;28;20061;-78
2021/11/22 06:13:24;;;;;;;1.85;0.63;;;;;;;;;;2084306;28;20025;-77
2021/11/22 06:14:43;;;;;;;1.08;0.95;;;;;;;;;;2085617;28;20452;-78
2021/11/22 06:16:02;;;;;;;0.80;0.80;;;;;;;;;;2083969;28;20045;-77
2021/11/22 06:17:21;;;;;;;2.78;1.10;;;;;;;;;;2089132;28;20029;-77
2021/11/22 06:18:40;;;;;;;1.48;0.80;;;;;;;;;;2088462;28;20025;-77
2021/11/22 06:19:58;;;;;;;5.05;0.90;;;;;;;;;;2085862;28;20111;-78
2021/11/22 06:21:17;;;;;;;1.80;0.80;;;;;;;;;;2083542;28;20045;-78
2021/11/22 06:22:36;;;;;;;5.38;1.10;;;;;;;;;;2085128;28;20505;-78
2021/11/22 06:23:55;;;;;;;4.88;1.10;;;;;;;;;;2084738;28;20036;-79
2021/11/22 06:25:14;;;;;;;6.22;4.32;;;;;;;;;;2080495;28;20033;-77
2021/11/22 06:26:34;;;;;;;1.13;1.00;;;;;;;;;;2086494;28;20463;-77
2021/11/22 06:27:53;;;;;;;2.83;0.88;;;;;;;;;;2088701;28;20029;-79
2021/11/22 06:29:17;;;;;;;3.17;1.10;;;;;;;;;;2087827;28;20501;-79
2021/11/22 06:30:36;;;;;;;1.42;0.60;;;;;;;;;;2083592;28;20029;-79
2021/11/22 06:31:55;;;;;;;2.60;0.95;;;;;;;;;;2081770;28;20037;-79
2021/11/22 06:33:14;;;;;;;3.28;1.00;;;;;;;;;;2085265;28;20112;-78
2021/11/22 06:34:33;;;;;;;4.43;1.00;;;;;;;;;;2089067;28;20040;-79
2021/11/22 06:35:52;;;;;;;3.97;0.77;;;;;;;;;;2089872;28;20025;-80
2021/11/22 06:37:11;;;;;;;3.65;0.63;;;;;;;;;;2083135;28;20033;-76
2021/11/22 06:38:33;;;;;;;2.08;1.02;;;;;;;;;;2088722;28;20473;-81
2021/11/22 06:39:53;;;;;;;3.72;1.17;;;;;;;;;;2088202;28;20336;-80
2021/11/22 06:41:12;;;;;;;1.13;0.82;;;;;;;;;;2082768;28;20037;-80
2021/11/22 06:42:31;;;;;;;2.35;1.00;;;;;;;;;;2084028;28;20488;-79
2021/11/22 06:43:50;;;;;;;1.08;0.90;;;;;;;;;;2084061;28;20071;-80
2021/11/22 06:45:09;;;;;;;1.40;0.60;;;;;;;;;;2085721;28;20025;-82
2021/11/22 06:46:28;;;;;;;1.58;0.88;;;;;;;;;;2085108;28;20037;-79
2021/11/22 06:47:47;;;;;;;3.28;0.90;;;;;;;;;;2084993;28;20021;-79
2021/11/22 06:49:06;;;;;;;1.77;0.90;;;;;;;;;;2087186;28;20028;-79
2021/11/22 06:50:26;;;;;;;4.40;1.10;;;;;;;;;;2086956;28;20029;-79
2021/11/22 06:51:48;;;;;;;2.85;1.10;;;;;;;;;;2086183;28;20033;-80
2021/11/22 06:53:07;;;;;;;3.88;1.20;;;;;;;;;;2086098;28;20032;-79
2021/11/22 06:54:26;;;;;;;1.67;1.00;;;;;;;;;;2086039;28;20037;-80
2021/11/22 06:55:45;;;;;;;2.45;0.98;;;;;;;;;;2088809;28;20025;-79
2021/11/22 06:57:04;;;;;;;2.25;0.90;;;;;;;;;;2085486;28;20036;-80
2021/11/22 06:58:23;;;;;;;2.08;0.82;;;;;;;;;;2092126;28;20029;-81
2021/11/22 06:59:43;;;;;;;1.38;0.85;;;;;;;;;;2089142;28;20032;-79
2021/11/22 07:01:02;;;;;;;3.20;0.90;;;;;;;;;;2088795;28;20037;-80
2021/11/22 07:02:24;;;;;;;5.15;1.20;;;;;;;;;;2090046;28;20108;-80
2021/11/22 07:03:43;;;;;;;1.33;1.00;;;;;;;;;;2087311;28;20029;-79
2021/11/22 07:05:02;;;;;;;7.18;1.15;;;;;;;;;;2083918;28;20670;-82
2021/11/22 07:06:21;;;;;;;2.45;1.23;;;;;;;;;;2092191;28;20025;-80
2021/11/22 07:07:39;;;;;;;1.50;0.80;;;;;;;;;;2091483;28;20029;-82
2021/11/22 07:08:58;;;;;;;2.25;0.70;;;;;;;;;;2086733;28;20041;-82
2021/11/22 07:10:20;;;;;;;1.83;1.17;;;;;;;;;;2089465;28;20385;-81
2021/11/22 07:11:39;;;;;;;2.92;1.20;;;;;;;;;;2095814;28;20056;-83
2021/11/22 07:12:58;;;;;;;4.22;1.10;;;;;;;;;;2088578;28;20049;-83
2021/11/22 07:14:17;;;;;;;2.05;1.17;;;;;;;;;;2085763;28;20051;-82
2021/11/22 07:15:37;;;;;;;2.72;1.13;;;;;;;;;;2086654;28;20049;-83
2021/11/22 07:16:57;;;;;;;3.15;1.17;;;;;;;;;;2090012;28;20401;-83
2021/11/22 07:18:16;;;;;;;3.80;1.00;;;;;;;;;;2086904;28;20041;-83
2021/11/22 07:19:35;;;;;;;2.13;1.00;;;;;;;;;;2087758;28;20223;-83
2021/11/22 07:20:54;;;;;;;5.00;1.17;;;;;;;;;;2091376;28;20391;-83
2021/11/22 07:22:13;;;;;;;3.35;1.08;;;;;;;;;;2086066;28;20147;-82
2021/11/22 07:23:32;;;;;;;3.33;1.00;;;;;;;;;;2085618;28;20100;-83
2021/11/22 07:24:51;;;;;;;3.13;1.50;;;;;;;;;;2090495;28;20064;-81
2021/11/22 07:26:10;;;;;;;2.05;0.80;;;;;;;;;;2085398;28;20516;-82
2021/11/22 07:27:30;;;;;;;4.15;1.05;;;;;;;;;;2089763;28;20045;-82
2021/11/22 07:28:49;;;;;;;2.05;1.02;;;;;;;;;;2089614;28;20025;-81
2021/11/22 07:30:08;;;;;;;2.78;0.90;;;;;;;;;;2087729;28;20029;-81
2021/11/22 07:31:28;;;;;;;2.95;1.00;;;;;;;;;;2089495;28;20021;-79
2021/11/22 07:32:52;;;;;;;1.10;0.70;;;;;;;;;;2086060;28;20032;-81
2021/11/22 07:34:10;;;;;;;4.57;1.08;;;;;;;;;;2083684;28;20112;-81
2021/11/22 07:35:29;;;;;;;1.58;1.10;;;;;;;;;;2084190;28;20025;-81
2021/11/22 07:36:48;;;;;;;8.48;1.35;;;;;;;;;;2085238;28;20044;-81
2021/11/22 07:38:07;;;;;;;2.38;1.20;;;;;;;;;;2088138;28;20115;-80
2021/11/22 07:39:26;;;;;;;3.22;0.70;;;;;;;;;;2084764;28;20076;-79
2021/11/22 07:40:45;;;;;;;6.07;1.38;;;;;;;;;;2089348;28;20037;-80
2021/11/22 07:42:04;;;;;;;2.15;0.95;;;;;;;;;;2088363;28;20105;-81
2021/11/22 07:43:23;;;;;;;2.78;1.10;;;;;;;;;;2086391;28;20393;-80
2021/11/22 07:44:42;;;;;;;2.70;1.08;;;;;;;;;;2092528;28;20473;-81
2021/11/22 07:46:01;;;;;;;1.60;0.90;;;;;;;;;;2087933;28;20017;-81
2021/11/22 07:47:20;;;;;;;3.35;1.20;;;;;;;;;;2081608;28;20040;-81
2021/11/22 07:48:39;;;;;;;2.58;0.80;;;;;;;;;;2085954;28;20021;-80
2021/11/22 07:49:58;;;;;;;3.72;0.70;;;;;;;;;;2087669;28;20029;-80
2021/11/22 07:51:17;;;;;;;1.02;0.73;;;;;;;;;;2088975;28;20108;-80
2021/11/22 07:52:36;;;;;;;2.40;1.45;;;;;;;;;;2084115;28;20029;-80
2021/11/22 07:53:55;;;;;;;3.63;1.02;;;;;;;;;;2086958;28;20030;-80
2021/11/22 07:55:14;;;;;;;1.02;0.82;;;;;;;;;;2085625;28;20484;-80
2021/11/22 07:56:33;;;;;;;4.38;0.80;;;;;;;;;;2084803;28;20057;-80